sensor_id;sensor_type;location;lat;lon;timestamp;P1;durP1;ratioP1;P2;durP2;ratioP2
50900;SDS011;36879;51.416;6.678;2022-10-31T00:01:32;15.15;;;9.75;;
50900;SDS011;36879;51.416;6.678;2022-10-31T00:03:59;16.85;;;10.85;;
50900;SDS011;36879;51.416;6.678;2022-10-31T00:06:25;18.45;;;11.30;;
50900;SDS011;36879;51.416;6.678;2022-10-31T00:08:52;17.70;;;10.48;;
50900;SDS011;36879;51.416;6.678;2022-10-31T00:11:18;18.30;;;11.10;;
50900;SDS011;36879;51.416;6.678;2022-10-31T00:13:44;17.35;;;10.75;;
50900;SDS011;36879;51.416;6.678;2022-10-31T00:16:28;20.67;;;11.23;;
50900;SDS011;36879;51.416;6.678;2022-10-31T00:18:55;25.52;;;11.18;;
50900;SDS011;36879;51.416;6.678;2022-10-31T00:21:21;19.55;;;11.75;;
50900;SDS011;36879;51.416;6.678;2022-10-31T00:23:48;18.67;;;11.48;;
50900;SDS011;36879;51.416;6.678;2022-10-31T00:26:14;25.83;;;12.27;;
50900;SDS011;36879;51.416;6.678;2022-10-31T00:28:40;25.25;;;12.05;;
50900;SDS011;36879;51.416;6.678;2022-10-31T00:31:07;19.60;;;11.98;;
50900;SDS011;36879;51.416;6.678;2022-10-31T00:33:34;21.20;;;11.95;;
50900;SDS011;36879;51.416;6.678;2022-10-31T00:36:01;20.80;;;11.35;;
50900;SDS011;36879;51.416;6.678;2022-10-31T00:38:27;25.80;;;12.23;;
50900;SDS011;36879;51.416;6.678;2022-10-31T00:40:53;18.25;;;11.43;;
50900;SDS011;36879;51.416;6.678;2022-10-31T00:43:19;23.83;;;11.38;;
50900;SDS011;36879;51.416;6.678;2022-10-31T00:45:45;17.15;;;10.50;;
50900;SDS011;36879;51.416;6.678;2022-10-31T00:48:11;24.50;;;12.45;;
50900;SDS011;36879;51.416;6.678;2022-10-31T00:50:38;19.60;;;10.35;;
50900;SDS011;36879;51.416;6.678;2022-10-31T00:53:04;21.73;;;11.32;;
50900;SDS011;36879;51.416;6.678;2022-10-31T00:55:30;18.35;;;12.38;;
50900;SDS011;36879;51.416;6.678;2022-10-31T00:57:56;20.55;;;12.05;;
50900;SDS011;36879;51.416;6.678;2022-10-31T01:00:22;26.08;;;11.52;;
50900;SDS011;36879;51.416;6.678;2022-10-31T01:02:48;25.00;;;11.48;;
50900;SDS011;36879;51.416;6.678;2022-10-31T01:05:14;22.65;;;10.77;;
50900;SDS011;36879;51.416;6.678;2022-10-31T01:07:40;16.45;;;10.85;;
50900;SDS011;36879;51.416;6.678;2022-10-31T01:10:07;23.42;;;11.85;;
50900;SDS011;36879;51.416;6.678;2022-10-31T01:12:39;22.27;;;12.25;;
50900;SDS011;36879;51.416;6.678;2022-10-31T01:15:06;19.75;;;11.43;;
50900;SDS011;36879;51.416;6.678;2022-10-31T01:17:32;15.73;;;10.02;;
50900;SDS011;36879;51.416;6.678;2022-10-31T01:19:58;19.83;;;11.75;;
50900;SDS011;36879;51.416;6.678;2022-10-31T01:22:24;19.15;;;11.15;;
50900;SDS011;36879;51.416;6.678;2022-10-31T01:24:50;19.50;;;11.07;;
50900;SDS011;36879;51.416;6.678;2022-10-31T01:27:16;26.92;;;11.68;;
50900;SDS011;36879;51.416;6.678;2022-10-31T01:29:42;18.20;;;10.25;;
50900;SDS011;36879;51.416;6.678;2022-10-31T01:32:07;19.02;;;11.27;;
50900;SDS011;36879;51.416;6.678;2022-10-31T01:34:34;20.08;;;11.25;;
50900;SDS011;36879;51.416;6.678;2022-10-31T01:37:00;25.40;;;12.30;;
50900;SDS011;36879;51.416;6.678;2022-10-31T01:39:26;20.38;;;11.23;;
50900;SDS011;36879;51.416;6.678;2022-10-31T01:41:52;21.05;;;11.15;;
50900;SDS011;36879;51.416;6.678;2022-10-31T01:49:14;19.30;;;11.32;;
50900;SDS011;36879;51.416;6.678;2022-10-31T01:51:45;22.55;;;11.25;;
50900;SDS011;36879;51.416;6.678;2022-10-31T01:54:12;16.92;;;10.65;;
50900;SDS011;36879;51.416;6.678;2022-10-31T01:56:40;17.45;;;10.98;;
50900;SDS011;36879;51.416;6.678;2022-10-31T01:59:09;20.77;;;10.82;;
50900;SDS011;36879;51.416;6.678;2022-10-31T02:01:36;21.02;;;11.25;;
50900;SDS011;36879;51.416;6.678;2022-10-31T02:04:03;20.95;;;10.85;;
50900;SDS011;36879;51.416;6.678;2022-10-31T02:08:58;18.25;;;10.73;;
50900;SDS011;36879;51.416;6.678;2022-10-31T02:11:27;20.63;;;11.40;;
50900;SDS011;36879;51.416;6.678;2022-10-31T02:13:53;19.98;;;11.68;;
50900;SDS011;36879;51.416;6.678;2022-10-31T02:16:19;19.25;;;10.73;;
50900;SDS011;36879;51.416;6.678;2022-10-31T02:18:45;20.65;;;11.00;;
50900;SDS011;36879;51.416;6.678;2022-10-31T02:21:17;18.42;;;10.40;;
50900;SDS011;36879;51.416;6.678;2022-10-31T02:34:36;18.05;;;10.88;;
50900;SDS011;36879;51.416;6.678;2022-10-31T02:37:09;18.20;;;10.52;;
50900;SDS011;36879;51.416;6.678;2022-10-31T02:42:11;20.42;;;10.70;;
50900;SDS011;36879;51.416;6.678;2022-10-31T02:44:39;21.27;;;11.15;;
50900;SDS011;36879;51.416;6.678;2022-10-31T02:47:14;26.40;;;11.23;;
50900;SDS011;36879;51.416;6.678;2022-10-31T02:52:29;19.25;;;11.13;;
50900;SDS011;36879;51.416;6.678;2022-10-31T02:54:55;20.80;;;12.07;;
50900;SDS011;36879;51.416;6.678;2022-10-31T02:57:31;19.35;;;11.77;;
50900;SDS011;36879;51.416;6.678;2022-10-31T03:00:01;21.10;;;12.30;;
50900;SDS011;36879;51.416;6.678;2022-10-31T03:15:39;23.27;;;12.27;;
50900;SDS011;36879;51.416;6.678;2022-10-31T03:18:10;19.85;;;11.55;;
50900;SDS011;36879;51.416;6.678;2022-10-31T03:20:52;19.70;;;10.70;;
50900;SDS011;36879;51.416;6.678;2022-10-31T03:23:19;19.75;;;11.90;;
50900;SDS011;36879;51.416;6.678;2022-10-31T03:25:47;24.10;;;12.30;;
50900;SDS011;36879;51.416;6.678;2022-10-31T03:28:15;20.60;;;11.57;;
50900;SDS011;36879;51.416;6.678;2022-10-31T03:30:43;20.35;;;12.15;;
50900;SDS011;36879;51.416;6.678;2022-10-31T03:33:10;21.80;;;11.38;;
50900;SDS011;36879;51.416;6.678;2022-10-31T03:35:37;19.23;;;10.93;;
50900;SDS011;36879;51.416;6.678;2022-10-31T03:38:05;15.77;;;10.52;;
50900;SDS011;36879;51.416;6.678;2022-10-31T03:40:31;23.40;;;12.50;;
50900;SDS011;36879;51.416;6.678;2022-10-31T03:43:00;21.17;;;11.02;;
50900;SDS011;36879;51.416;6.678;2022-10-31T03:45:27;28.25;;;12.57;;
50900;SDS011;36879;51.416;6.678;2022-10-31T03:47:54;19.70;;;11.45;;
50900;SDS011;36879;51.416;6.678;2022-10-31T03:50:21;23.23;;;12.05;;
50900;SDS011;36879;51.416;6.678;2022-10-31T03:52:51;20.98;;;11.20;;
50900;SDS011;36879;51.416;6.678;2022-10-31T03:55:25;22.42;;;11.25;;
50900;SDS011;36879;51.416;6.678;2022-10-31T03:58:05;20.58;;;11.18;;
50900;SDS011;36879;51.416;6.678;2022-10-31T04:00:32;17.33;;;10.30;;
50900;SDS011;36879;51.416;6.678;2022-10-31T04:03:13;24.30;;;12.10;;
50900;SDS011;36879;51.416;6.678;2022-10-31T04:05:40;22.63;;;12.27;;
50900;SDS011;36879;51.416;6.678;2022-10-31T04:08:08;21.92;;;13.43;;
50900;SDS011;36879;51.416;6.678;2022-10-31T04:10:35;23.38;;;13.82;;
50900;SDS011;36879;51.416;6.678;2022-10-31T04:13:05;21.48;;;11.57;;
50900;SDS011;36879;51.416;6.678;2022-10-31T04:15:33;22.52;;;12.50;;
50900;SDS011;36879;51.416;6.678;2022-10-31T04:17:59;23.08;;;13.00;;
50900;SDS011;36879;51.416;6.678;2022-10-31T04:20:29;22.45;;;12.23;;
50900;SDS011;36879;51.416;6.678;2022-10-31T04:22:55;23.00;;;12.45;;
50900;SDS011;36879;51.416;6.678;2022-10-31T04:25:21;20.83;;;11.82;;
50900;SDS011;36879;51.416;6.678;2022-10-31T04:27:47;25.70;;;12.55;;
50900;SDS011;36879;51.416;6.678;2022-10-31T04:30:13;21.60;;;11.70;;
50900;SDS011;36879;51.416;6.678;2022-10-31T04:32:39;22.52;;;13.70;;
50900;SDS011;36879;51.416;6.678;2022-10-31T04:35:05;24.08;;;12.90;;
50900;SDS011;36879;51.416;6.678;2022-10-31T04:37:31;22.05;;;13.23;;
50900;SDS011;36879;51.416;6.678;2022-10-31T04:39:57;24.52;;;11.85;;
50900;SDS011;36879;51.416;6.678;2022-10-31T04:42:23;23.40;;;11.75;;
50900;SDS011;36879;51.416;6.678;2022-10-31T04:44:49;24.05;;;13.45;;
50900;SDS011;36879;51.416;6.678;2022-10-31T04:47:15;22.80;;;12.80;;
50900;SDS011;36879;51.416;6.678;2022-10-31T04:49:41;23.98;;;13.13;;
50900;SDS011;36879;51.416;6.678;2022-10-31T04:52:07;18.80;;;12.60;;
50900;SDS011;36879;51.416;6.678;2022-10-31T04:54:33;23.38;;;12.48;;
50900;SDS011;36879;51.416;6.678;2022-10-31T04:56:59;21.08;;;11.93;;
50900;SDS011;36879;51.416;6.678;2022-10-31T04:59:25;18.90;;;10.25;;
50900;SDS011;36879;51.416;6.678;2022-10-31T05:01:51;20.27;;;10.52;;
50900;SDS011;36879;51.416;6.678;2022-10-31T05:04:17;18.13;;;10.50;;
50900;SDS011;36879;51.416;6.678;2022-10-31T05:06:43;17.00;;;10.48;;
50900;SDS011;36879;51.416;6.678;2022-10-31T05:09:09;15.20;;;9.77;;
50900;SDS011;36879;51.416;6.678;2022-10-31T05:11:35;17.05;;;10.18;;
50900;SDS011;36879;51.416;6.678;2022-10-31T05:14:01;20.52;;;11.40;;
50900;SDS011;36879;51.416;6.678;2022-10-31T05:16:27;17.30;;;10.25;;
50900;SDS011;36879;51.416;6.678;2022-10-31T05:18:54;17.33;;;10.15;;
50900;SDS011;36879;51.416;6.678;2022-10-31T05:21:20;18.75;;;10.13;;
50900;SDS011;36879;51.416;6.678;2022-10-31T05:23:46;21.35;;;11.45;;
50900;SDS011;36879;51.416;6.678;2022-10-31T05:26:12;20.20;;;13.00;;
50900;SDS011;36879;51.416;6.678;2022-10-31T05:28:38;18.85;;;11.02;;
50900;SDS011;36879;51.416;6.678;2022-10-31T05:31:04;18.10;;;11.05;;
50900;SDS011;36879;51.416;6.678;2022-10-31T05:33:30;21.83;;;11.48;;
50900;SDS011;36879;51.416;6.678;2022-10-31T05:35:56;19.95;;;11.63;;
50900;SDS011;36879;51.416;6.678;2022-10-31T05:38:22;24.00;;;11.63;;
50900;SDS011;36879;51.416;6.678;2022-10-31T05:40:47;17.65;;;9.82;;
50900;SDS011;36879;51.416;6.678;2022-10-31T05:43:13;17.85;;;10.50;;
50900;SDS011;36879;51.416;6.678;2022-10-31T05:45:40;16.90;;;10.25;;
50900;SDS011;36879;51.416;6.678;2022-10-31T05:48:06;19.27;;;11.80;;
50900;SDS011;36879;51.416;6.678;2022-10-31T05:50:32;17.45;;;10.55;;
50900;SDS011;36879;51.416;6.678;2022-10-31T05:53:03;19.20;;;10.88;;
50900;SDS011;36879;51.416;6.678;2022-10-31T05:55:29;15.68;;;9.85;;
50900;SDS011;36879;51.416;6.678;2022-10-31T05:57:55;14.70;;;9.68;;
50900;SDS011;36879;51.416;6.678;2022-10-31T06:00:22;16.67;;;10.40;;
50900;SDS011;36879;51.416;6.678;2022-10-31T06:02:48;12.95;;;9.55;;
50900;SDS011;36879;51.416;6.678;2022-10-31T06:05:14;26.00;;;10.57;;
50900;SDS011;36879;51.416;6.678;2022-10-31T06:07:41;21.83;;;12.90;;
50900;SDS011;36879;51.416;6.678;2022-10-31T06:10:07;24.25;;;11.15;;
50900;SDS011;36879;51.416;6.678;2022-10-31T06:12:34;17.88;;;11.07;;
50900;SDS011;36879;51.416;6.678;2022-10-31T06:15:05;17.35;;;9.73;;
50900;SDS011;36879;51.416;6.678;2022-10-31T06:17:32;17.33;;;10.75;;
50900;SDS011;36879;51.416;6.678;2022-10-31T06:19:58;17.98;;;10.77;;
50900;SDS011;36879;51.416;6.678;2022-10-31T06:22:24;19.38;;;11.50;;
50900;SDS011;36879;51.416;6.678;2022-10-31T06:24:50;18.50;;;11.32;;
50900;SDS011;36879;51.416;6.678;2022-10-31T06:27:16;17.80;;;10.65;;
50900;SDS011;36879;51.416;6.678;2022-10-31T06:29:42;19.42;;;12.15;;
50900;SDS011;36879;51.416;6.678;2022-10-31T06:32:10;22.73;;;11.50;;
50900;SDS011;36879;51.416;6.678;2022-10-31T06:34:37;21.17;;;12.02;;
50900;SDS011;36879;51.416;6.678;2022-10-31T06:37:03;21.92;;;12.65;;
50900;SDS011;36879;51.416;6.678;2022-10-31T06:39:29;23.13;;;12.50;;
50900;SDS011;36879;51.416;6.678;2022-10-31T06:41:55;17.52;;;10.05;;
50900;SDS011;36879;51.416;6.678;2022-10-31T06:44:21;18.70;;;12.07;;
50900;SDS011;36879;51.416;6.678;2022-10-31T06:46:47;17.45;;;11.68;;
50900;SDS011;36879;51.416;6.678;2022-10-31T06:49:13;21.98;;;11.70;;
50900;SDS011;36879;51.416;6.678;2022-10-31T06:51:39;21.50;;;11.80;;
50900;SDS011;36879;51.416;6.678;2022-10-31T06:54:05;20.58;;;11.20;;
50900;SDS011;36879;51.416;6.678;2022-10-31T06:56:31;23.23;;;11.45;;
50900;SDS011;36879;51.416;6.678;2022-10-31T06:58:57;18.98;;;11.82;;
50900;SDS011;36879;51.416;6.678;2022-10-31T07:01:23;20.02;;;11.05;;
50900;SDS011;36879;51.416;6.678;2022-10-31T07:03:49;18.42;;;10.93;;
50900;SDS011;36879;51.416;6.678;2022-10-31T07:06:14;21.58;;;11.65;;
50900;SDS011;36879;51.416;6.678;2022-10-31T07:08:41;29.58;;;14.07;;
50900;SDS011;36879;51.416;6.678;2022-10-31T07:11:07;17.50;;;11.32;;
50900;SDS011;36879;51.416;6.678;2022-10-31T07:13:33;18.60;;;9.65;;
50900;SDS011;36879;51.416;6.678;2022-10-31T07:16:03;19.38;;;11.45;;
50900;SDS011;36879;51.416;6.678;2022-10-31T07:18:29;21.25;;;11.57;;
50900;SDS011;36879;51.416;6.678;2022-10-31T07:20:55;18.80;;;11.82;;
50900;SDS011;36879;51.416;6.678;2022-10-31T07:23:21;17.77;;;11.45;;
50900;SDS011;36879;51.416;6.678;2022-10-31T07:25:47;21.35;;;11.35;;
50900;SDS011;36879;51.416;6.678;2022-10-31T07:28:13;21.15;;;12.48;;
50900;SDS011;36879;51.416;6.678;2022-10-31T07:30:39;23.38;;;13.38;;
50900;SDS011;36879;51.416;6.678;2022-10-31T07:33:05;25.42;;;13.77;;
50900;SDS011;36879;51.416;6.678;2022-10-31T07:35:31;17.73;;;12.43;;
50900;SDS011;36879;51.416;6.678;2022-10-31T07:37:58;19.08;;;11.45;;
50900;SDS011;36879;51.416;6.678;2022-10-31T07:40:31;20.70;;;12.00;;
50900;SDS011;36879;51.416;6.678;2022-10-31T07:42:57;28.05;;;12.70;;
50900;SDS011;36879;51.416;6.678;2022-10-31T07:45:23;20.10;;;12.50;;
50900;SDS011;36879;51.416;6.678;2022-10-31T07:47:50;25.65;;;13.07;;
50900;SDS011;36879;51.416;6.678;2022-10-31T07:50:17;23.20;;;13.45;;
50900;SDS011;36879;51.416;6.678;2022-10-31T07:52:44;20.65;;;13.90;;
50900;SDS011;36879;51.416;6.678;2022-10-31T07:55:10;22.65;;;13.52;;
50900;SDS011;36879;51.416;6.678;2022-10-31T07:57:36;26.65;;;13.80;;
50900;SDS011;36879;51.416;6.678;2022-10-31T08:00:05;21.60;;;14.50;;
50900;SDS011;36879;51.416;6.678;2022-10-31T08:02:32;26.15;;;14.48;;
50900;SDS011;36879;51.416;6.678;2022-10-31T08:04:58;24.90;;;13.98;;
50900;SDS011;36879;51.416;6.678;2022-10-31T08:07:24;21.30;;;13.65;;
50900;SDS011;36879;51.416;6.678;2022-10-31T08:09:50;21.63;;;14.27;;
50900;SDS011;36879;51.416;6.678;2022-10-31T08:12:17;25.25;;;13.70;;
50900;SDS011;36879;51.416;6.678;2022-10-31T08:14:43;22.15;;;14.63;;
50900;SDS011;36879;51.416;6.678;2022-10-31T08:17:09;22.58;;;14.45;;
50900;SDS011;36879;51.416;6.678;2022-10-31T08:19:35;22.08;;;13.65;;
50900;SDS011;36879;51.416;6.678;2022-10-31T08:22:02;21.17;;;13.30;;
50900;SDS011;36879;51.416;6.678;2022-10-31T08:24:28;23.67;;;14.68;;
50900;SDS011;36879;51.416;6.678;2022-10-31T08:26:54;30.42;;;16.02;;
50900;SDS011;36879;51.416;6.678;2022-10-31T08:29:20;24.77;;;15.57;;
50900;SDS011;36879;51.416;6.678;2022-10-31T08:31:46;22.60;;;14.10;;
50900;SDS011;36879;51.416;6.678;2022-10-31T08:34:12;24.63;;;14.40;;
50900;SDS011;36879;51.416;6.678;2022-10-31T08:36:38;27.42;;;15.35;;
50900;SDS011;36879;51.416;6.678;2022-10-31T08:39:04;26.80;;;16.55;;
50900;SDS011;36879;51.416;6.678;2022-10-31T08:41:30;28.63;;;16.85;;
50900;SDS011;36879;51.416;6.678;2022-10-31T08:43:56;26.63;;;16.23;;
50900;SDS011;36879;51.416;6.678;2022-10-31T08:46:22;27.00;;;16.50;;
50900;SDS011;36879;51.416;6.678;2022-10-31T08:48:48;32.08;;;17.23;;
50900;SDS011;36879;51.416;6.678;2022-10-31T08:51:14;28.85;;;17.23;;
50900;SDS011;36879;51.416;6.678;2022-10-31T08:53:40;30.65;;;16.77;;
50900;SDS011;36879;51.416;6.678;2022-10-31T08:56:06;37.05;;;18.95;;
50900;SDS011;36879;51.416;6.678;2022-10-31T08:58:32;30.58;;;17.75;;
50900;SDS011;36879;51.416;6.678;2022-10-31T09:00:59;30.85;;;18.38;;
50900;SDS011;36879;51.416;6.678;2022-10-31T09:03:28;30.73;;;17.35;;
50900;SDS011;36879;51.416;6.678;2022-10-31T09:05:56;33.38;;;17.85;;
50900;SDS011;36879;51.416;6.678;2022-10-31T09:08:22;31.02;;;16.88;;
50900;SDS011;36879;51.416;6.678;2022-10-31T09:10:49;26.70;;;15.93;;
50900;SDS011;36879;51.416;6.678;2022-10-31T09:13:16;27.15;;;15.50;;
50900;SDS011;36879;51.416;6.678;2022-10-31T09:15:43;33.17;;;16.42;;
50900;SDS011;36879;51.416;6.678;2022-10-31T09:18:09;28.20;;;16.55;;
50900;SDS011;36879;51.416;6.678;2022-10-31T09:20:36;28.10;;;15.55;;
50900;SDS011;36879;51.416;6.678;2022-10-31T09:23:04;25.77;;;14.77;;
50900;SDS011;36879;51.416;6.678;2022-10-31T09:25:30;23.80;;;14.10;;
50900;SDS011;36879;51.416;6.678;2022-10-31T09:27:56;25.13;;;14.20;;
50900;SDS011;36879;51.416;6.678;2022-10-31T09:30:23;21.85;;;14.15;;
50900;SDS011;36879;51.416;6.678;2022-10-31T09:32:54;21.20;;;12.77;;
50900;SDS011;36879;51.416;6.678;2022-10-31T09:35:20;21.83;;;12.75;;
50900;SDS011;36879;51.416;6.678;2022-10-31T09:37:46;18.33;;;11.80;;
50900;SDS011;36879;51.416;6.678;2022-10-31T09:40:12;23.05;;;11.10;;
50900;SDS011;36879;51.416;6.678;2022-10-31T09:42:47;17.38;;;10.55;;
50900;SDS011;36879;51.416;6.678;2022-10-31T09:50:27;17.17;;;9.80;;
50900;SDS011;36879;51.416;6.678;2022-10-31T09:53:00;15.93;;;9.27;;
50900;SDS011;36879;51.416;6.678;2022-10-31T09:55:31;14.38;;;9.02;;
50900;SDS011;36879;51.416;6.678;2022-10-31T09:58:01;18.15;;;9.90;;
50900;SDS011;36879;51.416;6.678;2022-10-31T10:00:27;19.27;;;10.40;;
50900;SDS011;36879;51.416;6.678;2022-10-31T10:02:58;17.45;;;10.10;;
50900;SDS011;36879;51.416;6.678;2022-10-31T10:05:43;17.55;;;9.07;;
50900;SDS011;36879;51.416;6.678;2022-10-31T10:08:13;15.70;;;9.05;;
50900;SDS011;36879;51.416;6.678;2022-10-31T10:10:45;11.43;;;7.82;;
50900;SDS011;36879;51.416;6.678;2022-10-31T10:21:11;18.20;;;8.77;;
50900;SDS011;36879;51.416;6.678;2022-10-31T10:31:20;14.20;;;8.02;;
50900;SDS011;36879;51.416;6.678;2022-10-31T10:33:54;15.07;;;8.65;;
50900;SDS011;36879;51.416;6.678;2022-10-31T10:36:26;15.40;;;8.60;;
50900;SDS011;36879;51.416;6.678;2022-10-31T10:38:54;17.77;;;7.97;;
50900;SDS011;36879;51.416;6.678;2022-10-31T10:41:23;15.13;;;9.18;;
50900;SDS011;36879;51.416;6.678;2022-10-31T10:43:49;18.60;;;8.57;;
50900;SDS011;36879;51.416;6.678;2022-10-31T10:46:25;15.52;;;8.73;;
50900;SDS011;36879;51.416;6.678;2022-10-31T10:54:33;16.33;;;8.52;;
50900;SDS011;36879;51.416;6.678;2022-10-31T10:57:10;17.73;;;9.23;;
50900;SDS011;36879;51.416;6.678;2022-10-31T10:59:37;16.88;;;9.40;;
50900;SDS011;36879;51.416;6.678;2022-10-31T11:02:08;15.40;;;8.60;;
50900;SDS011;36879;51.416;6.678;2022-10-31T11:04:41;17.00;;;8.57;;
50900;SDS011;36879;51.416;6.678;2022-10-31T11:07:08;18.05;;;9.32;;
50900;SDS011;36879;51.416;6.678;2022-10-31T11:09:35;20.33;;;9.80;;
50900;SDS011;36879;51.416;6.678;2022-10-31T11:12:08;19.83;;;9.80;;
50900;SDS011;36879;51.416;6.678;2022-10-31T11:14:36;20.55;;;10.77;;
50900;SDS011;36879;51.416;6.678;2022-10-31T11:17:10;19.13;;;9.25;;
50900;SDS011;36879;51.416;6.678;2022-10-31T11:19:36;18.90;;;9.13;;
50900;SDS011;36879;51.416;6.678;2022-10-31T11:22:05;17.50;;;9.00;;
50900;SDS011;36879;51.416;6.678;2022-10-31T11:24:35;19.90;;;10.18;;
50900;SDS011;36879;51.416;6.678;2022-10-31T11:27:05;22.80;;;11.57;;
50900;SDS011;36879;51.416;6.678;2022-10-31T11:29:35;20.75;;;9.38;;
50900;SDS011;36879;51.416;6.678;2022-10-31T11:32:01;13.43;;;8.60;;
50900;SDS011;36879;51.416;6.678;2022-10-31T11:34:29;17.02;;;8.95;;
50900;SDS011;36879;51.416;6.678;2022-10-31T11:37:02;16.58;;;8.93;;
50900;SDS011;36879;51.416;6.678;2022-10-31T11:39:28;15.15;;;8.35;;
50900;SDS011;36879;51.416;6.678;2022-10-31T11:41:54;16.20;;;8.60;;
50900;SDS011;36879;51.416;6.678;2022-10-31T11:44:22;15.55;;;7.78;;
50900;SDS011;36879;51.416;6.678;2022-10-31T11:46:50;15.60;;;9.13;;
50900;SDS011;36879;51.416;6.678;2022-10-31T11:49:38;16.95;;;8.27;;
50900;SDS011;36879;51.416;6.678;2022-10-31T11:52:05;16.23;;;7.18;;
50900;SDS011;36879;51.416;6.678;2022-10-31T11:54:32;18.50;;;7.18;;
50900;SDS011;36879;51.416;6.678;2022-10-31T11:56:59;18.95;;;8.88;;
50900;SDS011;36879;51.416;6.678;2022-10-31T11:59:27;13.80;;;7.40;;
50900;SDS011;36879;51.416;6.678;2022-10-31T12:01:54;19.80;;;8.43;;
50900;SDS011;36879;51.416;6.678;2022-10-31T12:04:31;12.43;;;7.07;;
50900;SDS011;36879;51.416;6.678;2022-10-31T12:06:58;13.43;;;7.47;;
50900;SDS011;36879;51.416;6.678;2022-10-31T12:09:28;12.13;;;6.93;;
50900;SDS011;36879;51.416;6.678;2022-10-31T12:17:15;17.80;;;6.82;;
50900;SDS011;36879;51.416;6.678;2022-10-31T12:22:27;17.48;;;8.07;;
50900;SDS011;36879;51.416;6.678;2022-10-31T12:27:27;14.98;;;7.97;;
50900;SDS011;36879;51.416;6.678;2022-10-31T12:30:16;17.00;;;6.85;;
50900;SDS011;36879;51.416;6.678;2022-10-31T12:35:40;16.58;;;7.40;;
50900;SDS011;36879;51.416;6.678;2022-10-31T12:40:59;12.73;;;6.20;;
50900;SDS011;36879;51.416;6.678;2022-10-31T12:46:04;15.57;;;6.80;;
50900;SDS011;36879;51.416;6.678;2022-10-31T13:06:43;14.43;;;5.30;;
50900;SDS011;36879;51.416;6.678;2022-10-31T13:09:20;9.52;;;4.55;;
50900;SDS011;36879;51.416;6.678;2022-10-31T13:11:48;9.73;;;4.28;;
50900;SDS011;36879;51.416;6.678;2022-10-31T13:17:02;10.20;;;3.42;;
50900;SDS011;36879;51.416;6.678;2022-10-31T13:19:35;8.77;;;4.03;;
50900;SDS011;36879;51.416;6.678;2022-10-31T13:22:21;8.30;;;3.63;;
50900;SDS011;36879;51.416;6.678;2022-10-31T13:24:53;10.27;;;3.38;;
50900;SDS011;36879;51.416;6.678;2022-10-31T13:33:17;8.18;;;3.35;;
50900;SDS011;36879;51.416;6.678;2022-10-31T13:35:25;9.50;;;3.90;;
50900;SDS011;36879;51.416;6.678;2022-10-31T13:38:39;8.13;;;3.35;;
50900;SDS011;36879;51.416;6.678;2022-10-31T13:40:44;8.15;;;2.90;;
50900;SDS011;36879;51.416;6.678;2022-10-31T13:45:53;7.63;;;2.80;;
50900;SDS011;36879;51.416;6.678;2022-10-31T13:48:31;7.40;;;3.05;;
50900;SDS011;36879;51.416;6.678;2022-10-31T13:50:59;7.97;;;3.10;;
50900;SDS011;36879;51.416;6.678;2022-10-31T13:58:34;8.10;;;2.42;;
50900;SDS011;36879;51.416;6.678;2022-10-31T14:03:39;7.60;;;2.60;;
50900;SDS011;36879;51.416;6.678;2022-10-31T14:06:06;6.95;;;2.42;;
50900;SDS011;36879;51.416;6.678;2022-10-31T14:08:34;5.68;;;3.13;;
50900;SDS011;36879;51.416;6.678;2022-10-31T14:11:01;9.40;;;2.80;;
50900;SDS011;36879;51.416;6.678;2022-10-31T14:15:57;6.70;;;2.58;;
50900;SDS011;36879;51.416;6.678;2022-10-31T14:18:27;8.93;;;3.42;;
50900;SDS011;36879;51.416;6.678;2022-10-31T14:20:54;6.32;;;2.65;;
50900;SDS011;36879;51.416;6.678;2022-10-31T14:28:30;6.70;;;2.60;;
50900;SDS011;36879;51.416;6.678;2022-10-31T14:30:57;10.18;;;2.58;;
50900;SDS011;36879;51.416;6.678;2022-10-31T14:33:25;6.80;;;2.97;;
50900;SDS011;36879;51.416;6.678;2022-10-31T14:38:24;6.25;;;2.50;;
50900;SDS011;36879;51.416;6.678;2022-10-31T14:43:43;5.30;;;3.03;;
50900;SDS011;36879;51.416;6.678;2022-10-31T14:51:25;7.65;;;2.75;;
50900;SDS011;36879;51.416;6.678;2022-10-31T14:53:56;9.60;;;3.33;;
50900;SDS011;36879;51.416;6.678;2022-10-31T14:58:48;7.25;;;2.55;;
50900;SDS011;36879;51.416;6.678;2022-10-31T15:01:17;6.82;;;2.80;;
50900;SDS011;36879;51.416;6.678;2022-10-31T15:03:44;9.13;;;3.63;;
50900;SDS011;36879;51.416;6.678;2022-10-31T15:06:16;8.73;;;2.35;;
50900;SDS011;36879;51.416;6.678;2022-10-31T15:08:44;7.47;;;2.75;;
50900;SDS011;36879;51.416;6.678;2022-10-31T15:11:14;4.47;;;2.83;;
50900;SDS011;36879;51.416;6.678;2022-10-31T15:13:41;9.10;;;3.75;;
50900;SDS011;36879;51.416;6.678;2022-10-31T15:16:08;8.45;;;2.55;;
50900;SDS011;36879;51.416;6.678;2022-10-31T15:18:47;9.35;;;3.03;;
50900;SDS011;36879;51.416;6.678;2022-10-31T15:21:14;7.93;;;3.40;;
50900;SDS011;36879;51.416;6.678;2022-10-31T15:23:41;6.80;;;3.40;;
50900;SDS011;36879;51.416;6.678;2022-10-31T15:26:11;5.05;;;2.70;;
50900;SDS011;36879;51.416;6.678;2022-10-31T15:28:40;5.10;;;2.28;;
50900;SDS011;36879;51.416;6.678;2022-10-31T15:31:12;7.43;;;2.28;;
50900;SDS011;36879;51.416;6.678;2022-10-31T15:33:40;8.77;;;2.80;;
50900;SDS011;36879;51.416;6.678;2022-10-31T15:36:16;8.93;;;2.60;;
50900;SDS011;36879;51.416;6.678;2022-10-31T15:38:43;7.25;;;2.90;;
50900;SDS011;36879;51.416;6.678;2022-10-31T15:41:21;6.25;;;3.55;;
50900;SDS011;36879;51.416;6.678;2022-10-31T15:43:48;6.25;;;2.63;;
50900;SDS011;36879;51.416;6.678;2022-10-31T15:46:14;10.75;;;2.47;;
50900;SDS011;36879;51.416;6.678;2022-10-31T15:48:43;7.65;;;2.85;;
50900;SDS011;36879;51.416;6.678;2022-10-31T15:51:10;9.13;;;2.95;;
50900;SDS011;36879;51.416;6.678;2022-10-31T15:53:37;11.43;;;3.63;;
50900;SDS011;36879;51.416;6.678;2022-10-31T15:56:08;3.95;;;2.45;;
50900;SDS011;36879;51.416;6.678;2022-10-31T15:58:42;10.02;;;2.55;;
50900;SDS011;36879;51.416;6.678;2022-10-31T16:01:26;10.18;;;2.65;;
50900;SDS011;36879;51.416;6.678;2022-10-31T16:06:27;8.53;;;3.03;;
50900;SDS011;36879;51.416;6.678;2022-10-31T16:08:53;9.73;;;2.92;;
50900;SDS011;36879;51.416;6.678;2022-10-31T16:16:20;6.70;;;2.70;;
50900;SDS011;36879;51.416;6.678;2022-10-31T16:18:47;8.18;;;3.15;;
50900;SDS011;36879;51.416;6.678;2022-10-31T16:21:14;4.28;;;2.25;;
50900;SDS011;36879;51.416;6.678;2022-10-31T16:23:43;7.20;;;2.95;;
50900;SDS011;36879;51.416;6.678;2022-10-31T16:26:12;5.68;;;2.78;;
50900;SDS011;36879;51.416;6.678;2022-10-31T16:28:49;7.25;;;3.30;;
50900;SDS011;36879;51.416;6.678;2022-10-31T16:31:24;8.48;;;3.20;;
50900;SDS011;36879;51.416;6.678;2022-10-31T16:33:51;5.82;;;3.05;;
50900;SDS011;36879;51.416;6.678;2022-10-31T16:38:56;7.32;;;2.67;;
50900;SDS011;36879;51.416;6.678;2022-10-31T16:41:22;7.15;;;3.00;;
50900;SDS011;36879;51.416;6.678;2022-10-31T16:43:48;11.25;;;3.25;;
50900;SDS011;36879;51.416;6.678;2022-10-31T16:46:15;9.98;;;2.85;;
50900;SDS011;36879;51.416;6.678;2022-10-31T16:48:43;7.65;;;2.65;;
50900;SDS011;36879;51.416;6.678;2022-10-31T16:51:09;8.27;;;3.92;;
50900;SDS011;36879;51.416;6.678;2022-10-31T16:53:35;7.18;;;3.13;;
50900;SDS011;36879;51.416;6.678;2022-10-31T16:56:02;7.82;;;3.42;;
50900;SDS011;36879;51.416;6.678;2022-10-31T16:58:32;6.20;;;3.45;;
50900;SDS011;36879;51.416;6.678;2022-10-31T17:00:59;6.90;;;3.65;;
50900;SDS011;36879;51.416;6.678;2022-10-31T17:03:25;5.03;;;3.35;;